Time;durP1;ratioP1;P1;durP2;ratioP2;P2;SDS_P1;SDS_P2;PMS_P1;PMS_P2;Temp;Humidity;BMP_temperature;BMP_pressure;BME280_temperature;BME280_humidity;BME280_pressure;Samples;Min_cycle;Max_cycle;Signal;HPM_P1;HPM_P2
2023/01/05 00:00:33;;;;;;;;;;;;;;;8.74;100.00;101432.72;5054646;28;19932;-80
2023/01/05 00:02:58;;;;;;;;;;;;;;;8.71;100.00;101430.31;5055497;28;19921;-80
2023/01/05 00:05:23;;;;;;;;;;;;;;;8.70;100.00;101452.34;5052403;28;20058;-80
2023/01/05 00:07:48;;;;;;;;;;;;;;;8.73;100.00;101444.19;5054159;28;19927;-80
2023/01/05 00:22:29;;;;;;;;;;;;;;;8.67;100.00;101449.94;5061043;28;20022;-80
2023/01/05 00:23:58;;;;;;;;;;;;;;;8.65;100.00;101466.69;5052644;28;20522;-79
2023/01/05 00:26:23;;;;;;;;;;;;;;;8.63;100.00;101458.09;5054167;28;20019;-80
2023/01/05 00:28:50;;;;;;;;;;;;;;;8.64;100.00;101466.81;5050733;28;20345;-80
2023/01/05 00:31:15;;;;;;;;;;;;;;;8.60;100.00;101460.97;5053446;28;20435;-80
2023/01/05 00:33:40;;;;;;;;;;;;;;;8.62;100.00;101463.47;5053594;28;20488;-80
2023/01/05 00:36:09;;;;;;;;;;;;;;;8.60;100.00;101474.13;5052810;28;19931;-80
2023/01/05 00:38:34;;;;;;;;;;;;;;;8.65;100.00;101476.38;5053357;28;19920;-80
2023/01/05 00:40:59;;;;;;;;;;;;;;;8.61;100.00;101478.41;5053028;28;19924;-79
2023/01/05 00:43:25;;;;;;;;;;;;;;;8.60;100.00;101487.28;5052472;28;19931;-79
2023/01/05 00:45:50;;;;;;;;;;;;;;;8.63;100.00;101494.91;5052133;28;19916;-80
2023/01/05 00:48:15;;;;;;;;;;;;;;;8.60;100.00;101507.47;5051750;28;19925;-80
2023/01/05 00:50:40;;;;;;;;;;;;;;;8.54;100.00;101500.91;5054325;28;20614;-80
2023/01/05 00:53:05;;;;;;;;;;;;;;;8.54;100.00;101515.88;5053034;28;19993;-80
2023/01/05 00:55:31;;;;;;;;;;;;;;;8.54;100.00;101514.06;5050832;28;19925;-79
2023/01/05 00:57:56;;;;;;;;;;;;;;;8.56;100.00;101533.22;5052280;28;20026;-80
2023/01/05 01:00:21;;;;;;;;;;;;;;;8.54;100.00;101535.13;5052561;28;19932;-79
2023/01/05 01:02:49;;;;;;;;;;;;;;;8.51;100.00;101532.72;5053373;28;19924;-80
2023/01/05 01:05:14;;;;;;;;;;;;;;;8.48;100.00;101540.84;5052038;28;19928;-80
2023/01/05 01:07:40;;;;;;;;;;;;;;;8.55;100.00;101555.19;5053325;28;19925;-80
2023/01/05 01:10:05;;;;;;;;;;;;;;;8.53;100.00;101554.47;5053943;28;19925;-80
2023/01/05 01:12:31;;;;;;;;;;;;;;;8.51;100.00;101566.91;5053862;28;20372;-80
2023/01/05 01:14:56;;;;;;;;;;;;;;;8.54;100.00;101577.22;5051496;28;19924;-80
2023/01/05 01:17:21;;;;;;;;;;;;;;;8.54;100.00;101581.66;5051814;28;20411;-80
2023/01/05 01:19:47;;;;;;;;;;;;;;;8.57;100.00;101581.41;5053261;28;19939;-79
2023/01/05 01:22:12;;;;;;;;;;;;;;;8.58;100.00;101581.28;5060092;28;19920;-80
2023/01/05 01:24:38;;;;;;;;;;;;;;;8.55;100.00;101589.41;5052322;28;19921;-79
2023/01/05 01:27:03;;;;;;;;;;;;;;;8.57;100.00;101582.22;5051862;28;20023;-79
2023/01/05 01:29:29;;;;;;;;;;;;;;;8.56;100.00;101590.25;5050773;28;19920;-79
2023/01/05 01:31:54;;;;;;;;;;;;;;;8.61;100.00;101572.31;5052415;28;20372;-79
2023/01/05 01:34:19;;;;;;;;;;;;;;;8.60;100.00;101579.38;5051781;28;20027;-80
2023/01/05 01:36:45;;;;;;;;;;;;;;;8.63;100.00;101575.66;5051913;28;20287;-79
2023/01/05 01:39:10;;;;;;;;;;;;;;;8.61;100.00;101562.63;5050929;28;20015;-79
2023/01/05 01:41:36;;;;;;;;;;;;;;;8.64;100.00;101572.06;5052773;28;20308;-79
2023/01/05 01:44:01;;;;;;;;;;;;;;;8.61;100.00;101567.06;5052847;28;20478;-79
2023/01/05 01:46:27;;;;;;;;;;;;;;;8.60;100.00;101555.69;5033062;28;19931;-79
2023/01/05 01:49:00;;;;;;;;;;;;;;;8.60;100.00;101539.91;5052800;28;20904;-79
2023/01/05 01:51:34;;;;;;;;;;;;;;;8.66;100.00;101543.84;5052666;28;20046;-79
2023/01/05 01:54:01;;;;;;;;;;;;;;;8.67;100.00;101539.41;5054156;28;20416;-79
2023/01/05 01:56:29;;;;;;;;;;;;;;;8.63;100.00;101523.03;5051112;28;20685;-79
2023/01/05 01:58:55;;;;;;;;;;;;;;;8.64;100.00;101517.66;5051961;28;19920;-79
2023/01/05 02:01:20;;;;;;;;;;;;;;;8.65;100.00;101503.53;5052231;28;19931;-79
2023/01/05 02:03:46;;;;;;;;;;;;;;;8.63;100.00;101502.81;5035600;28;19927;-79
2023/01/05 02:06:11;;;;;;;;;;;;;;;8.62;100.00;101489.78;5050553;28;20859;-79
2023/01/05 02:08:37;;;;;;;;;;;;;;;8.63;100.00;101476.50;5052519;28;19920;-79
2023/01/05 02:11:08;;;;;;;;;;;;;;;8.62;100.00;101464.31;5052700;28;20003;-80
2023/01/05 02:13:52;;;;;;;;;;;;;;;8.65;100.00;101461.44;5051623;28;19935;-79
2023/01/05 02:16:34;;;;;;;;;;;;;;;8.62;100.00;101456.44;5051917;28;19916;-80
2023/01/05 02:19:18;;;;;;;;;;;;;;;8.60;100.00;101439.06;5052248;28;19996;-79
2023/01/05 02:21:55;;;;;;;;;;;;;;;8.62;100.00;101440.63;5053141;28;19916;-80
2023/01/05 02:24:36;;;;;;;;;;;;;;;8.64;100.00;101427.34;5051691;28;19931;-79
2023/01/05 02:27:20;;;;;;;;;;;;;;;8.64;100.00;101428.19;5057833;28;19928;-79
2023/01/05 02:29:45;;;;;;;;;;;;;;;8.61;100.00;101398.66;5051612;28;19998;-79
2023/01/05 02:32:16;;;;;;;;;;;;;;;8.61;100.00;101410.00;5050705;28;19983;-79
2023/01/05 02:35:02;;;;;;;;;;;;;;;8.63;100.00;101405.47;5053907;28;19920;-79
2023/01/05 02:37:53;;;;;;;;;;;;;;;8.64;100.00;101415.03;5024342;28;19924;-80
2023/01/05 02:40:22;;;;;;;;;;;;;;;8.65;100.00;101411.44;5057423;28;20299;-79
2023/01/05 02:42:50;;;;;;;;;;;;;;;8.67;100.00;101407.81;5056214;28;20003;-79
2023/01/05 02:45:15;;;;;;;;;;;;;;;8.64;100.00;101412.41;5055369;28;19931;-79
2023/01/05 02:47:42;;;;;;;;;;;;;;;8.56;100.00;101406.09;5054826;28;19928;-79
2023/01/05 02:50:10;;;;;;;;;;;;;;;8.59;100.00;101417.19;5055828;28;19921;-80
2023/01/05 02:52:38;;;;;;;;;;;;;;;8.63;100.00;101429.13;5056609;28;20029;-79
2023/01/05 02:55:07;;;;;;;;;;;;;;;8.63;100.00;101434.41;5055077;28;20454;-80
2023/01/05 02:57:47;;;;;;;;;;;;;;;8.61;100.00;101433.69;5052845;28;20026;-79
2023/01/05 03:00:17;;;;;;;;;;;;;;;8.62;100.00;101442.41;5054675;28;20045;-80
2023/01/05 03:02:44;;;;;;;;;;;;;;;8.59;100.00;101442.66;5061931;28;19924;-79
2023/01/05 03:05:13;;;;;;;;;;;;;;;8.57;100.00;101450.66;5054796;28;19932;-80
2023/01/05 03:07:40;;;;;;;;;;;;;;;8.58;100.00;101446.25;5055066;28;19927;-80
2023/01/05 03:15:38;;;;;;;;;;;;;;;8.55;100.00;101455.22;5054650;28;19955;-79
2023/01/05 03:18:05;;;;;;;;;;;;;;;8.58;100.00;101443.59;5054884;28;20465;-79
2023/01/05 03:20:31;;;;;;;;;;;;;;;8.58;100.00;101451.50;5055192;28;20547;-80
2023/01/05 03:36:52;;;;;;;;;;;;;;;8.57;100.00;101444.59;5055015;28;20318;-80
2023/01/05 03:39:18;;;;;;;;;;;;;;;8.60;100.00;101447.81;5054824;28;19960;-80
2023/01/05 03:41:43;;;;;;;;;;;;;;;8.58;100.00;101446.25;5054786;28;20625;-80
2023/01/05 03:44:09;;;;;;;;;;;;;;;8.60;100.00;101445.19;5055022;28;19927;-81
2023/01/05 03:46:34;;;;;;;;;;;;;;;8.60;100.00;101441.69;5053734;28;19921;-80
2023/01/05 03:48:59;;;;;;;;;;;;;;;8.59;100.00;101453.19;5054916;28;19974;-80
2023/01/05 03:51:24;;;;;;;;;;;;;;;8.63;100.00;101438.84;5038145;28;19928;-80
2023/01/05 03:53:50;;;;;;;;;;;;;;;8.65;100.00;101444.81;5053864;28;19920;-80
2023/01/05 03:56:15;;;;;;;;;;;;;;;8.62;100.00;101443.28;5054515;28;20308;-80
2023/01/05 03:58:40;;;;;;;;;;;;;;;8.64;100.00;101449.25;5053354;28;19920;-80
2023/01/05 04:01:06;;;;;;;;;;;;;;;8.67;100.00;101445.53;5057749;28;20065;-80
2023/01/05 04:03:31;;;;;;;;;;;;;;;8.70;100.00;101454.97;5053980;28;20394;-80
2023/01/05 04:05:57;;;;;;;;;;;;;;;8.69;100.00;101442.75;5053900;28;19925;-80
2023/01/05 04:08:22;;;;;;;;;;;;;;;8.70;100.00;101452.34;5053116;28;19916;-80
2023/01/05 04:10:47;;;;;;;;;;;;;;;8.68;100.00;101452.44;5053761;28;19920;-80
2023/01/05 04:13:12;;;;;;;;;;;;;;;8.68;100.00;101455.06;5037500;28;19948;-80
2023/01/05 04:15:38;;;;;;;;;;;;;;;8.70;100.00;101457.59;5053309;28;20027;-80
2023/01/05 04:18:04;;;;;;;;;;;;;;;8.68;100.00;101460.34;5053043;28;19966;-80
2023/01/05 04:20:29;;;;;;;;;;;;;;;8.70;100.00;101460.22;5052106;28;20423;-80
2023/01/05 04:22:54;;;;;;;;;;;;;;;8.73;100.00;101465.22;5054086;28;19923;-81
2023/01/05 04:25:19;;;;;;;;;;;;;;;8.73;100.00;101460.84;5052442;28;19925;-80
2023/01/05 04:27:45;;;;;;;;;;;;;;;8.74;100.00;101470.38;5054122;28;20312;-80
2023/01/05 04:30:10;;;;;;;;;;;;;;;8.72;100.00;101474.94;5053061;28;19924;-80
2023/01/05 04:32:35;;;;;;;;;;;;;;;8.75;100.00;101473.84;5053153;28;19975;-81
2023/01/05 04:35:01;;;;;;;;;;;;;;;8.71;100.00;101478.53;5053184;28;19925;-81
2023/01/05 04:37:26;;;;;;;;;;;;;;;8.72;100.00;101489.91;5037245;28;19986;-81
2023/01/05 04:39:51;;;;;;;;;;;;;;;8.74;100.00;101496.69;5054000;28;19920;-80
2023/01/05 04:42:16;;;;;;;;;;;;;;;8.70;100.00;101497.06;5052877;28;19936;-80
2023/01/05 04:44:42;;;;;;;;;;;;;;;8.66;100.00;101491.22;5053232;28;19928;-80
2023/01/05 04:47:07;;;;;;;;;;;;;;;8.64;100.00;101493.97;5053655;28;19956;-80
2023/01/05 04:49:32;;;;;;;;;;;;;;;8.68;100.00;101501.63;5053731;28;19936;-80
2023/01/05 04:51:57;;;;;;;;;;;;;;;8.69;100.00;101498.00;5054136;28;20020;-80
2023/01/05 04:54:23;;;;;;;;;;;;;;;8.68;100.00;101505.06;5052811;28;19929;-80
2023/01/05 04:56:48;;;;;;;;;;;;;;;8.68;100.00;101504.25;5053351;28;19974;-80
2023/01/05 04:59:13;;;;;;;;;;;;;;;8.69;100.00;101504.13;5052035;28;19978;-80
2023/01/05 05:01:38;;;;;;;;;;;;;;;8.65;100.00;101500.91;5053044;28;19928;-80
2023/01/05 05:04:04;;;;;;;;;;;;;;;8.62;100.00;101516.94;5052527;28;19928;-80
2023/01/05 05:06:29;;;;;;;;;;;;;;;8.61;100.00;101522.31;5053047;28;19944;-80
2023/01/05 05:08:54;;;;;;;;;;;;;;;8.59;100.00;101522.44;5052788;28;19925;-80
2023/01/05 05:11:19;;;;;;;;;;;;;;;8.62;100.00;101521.34;5036187;28;20448;-80
2023/01/05 05:13:45;;;;;;;;;;;;;;;8.60;100.00;101529.38;5060338;28;19917;-80
2023/01/05 05:16:10;;;;;;;;;;;;;;;8.60;100.00;101534.66;5052923;28;19923;-80
2023/01/05 05:18:35;;;;;;;;;;;;;;;8.57;100.00;101537.50;5053433;28;19924;-80
2023/01/05 05:21:00;;;;;;;;;;;;;;;8.54;100.00;101548.28;5059724;28;20343;-80
2023/01/05 05:23:26;;;;;;;;;;;;;;;8.55;100.00;101549.94;5052275;28;19928;-80
2023/01/05 05:25:51;;;;;;;;;;;;;;;8.55;100.00;101557.81;5052401;28;19944;-80
2023/01/05 05:28:17;;;;;;;;;;;;;;;8.56;100.00;101550.78;5058289;28;19963;-80
2023/01/05 05:30:42;;;;;;;;;;;;;;;8.56;100.00;101546.38;5058319;28;19944;-80
2023/01/05 05:33:07;;;;;;;;;;;;;;;8.58;100.00;101557.59;5052544;28;19947;-81
2023/01/05 05:35:32;;;;;;;;;;;;;;;8.56;100.00;101564.78;5053207;28;19978;-80
2023/01/05 05:37:58;;;;;;;;;;;;;;;8.55;100.00;101557.81;5053279;28;19916;-80
2023/01/05 05:40:25;;;;;;;;;;;;;;;8.56;100.00;101564.78;5052857;28;19920;-81
2023/01/05 05:42:50;;;;;;;;;;;;;;;8.56;100.00;101564.78;5053225;28;19948;-80
2023/01/05 05:45:15;;;;;;;;;;;;;;;8.60;100.00;101566.22;5053090;28;19974;-80
2023/01/05 05:47:41;;;;;;;;;;;;;;;8.60;100.00;101566.22;5052524;28;19924;-80
2023/01/05 05:50:07;;;;;;;;;;;;;;;8.56;100.00;101564.78;5050348;28;20878;-80
2023/01/05 05:52:32;;;;;;;;;;;;;;;8.56;100.00;101574.47;5053119;28;19959;-80
2023/01/05 05:54:57;;;;;;;;;;;;;;;8.59;100.00;101572.41;5036482;28;20523;-80
2023/01/05 05:57:22;;;;;;;;;;;;;;;8.57;100.00;101579.59;5053142;28;20604;-80
2023/01/05 05:59:48;;;;;;;;;;;;;;;8.60;100.00;101592.53;5035253;28;20318;-80
2023/01/05 06:02:13;;;;;;;;;;;;;;;8.59;100.00;101588.22;5051252;28;19936;-81
2023/01/05 06:04:38;;;;;;;;;;;;;;;8.63;100.00;101592.28;5052978;28;19994;-80
2023/01/05 06:07:03;;;;;;;;;;;;;;;8.62;100.00;101590.63;5053235;28;20007;-79
2023/01/05 06:09:29;;;;;;;;;;;;;;;8.64;100.00;101599.25;5052903;28;20373;-80
2023/01/05 06:11:54;;;;;;;;;;;;;;;8.66;100.00;101596.47;5057608;28;19927;-80
2023/01/05 06:14:19;;;;;;;;;;;;;;;8.67;100.00;101597.28;5057525;28;19959;-80
2023/01/05 06:16:44;;;;;;;;;;;;;;;8.64;100.00;101609.75;5054400;28;20377;-80
2023/01/05 06:19:10;;;;;;;;;;;;;;;8.69;100.00;101616.44;5054145;28;19975;-80
2023/01/05 06:21:35;;;;;;;;;;;;;;;8.64;100.00;101615.03;5057142;28;19920;-80
2023/01/05 06:24:01;;;;;;;;;;;;;;;8.64;100.00;101615.03;5057525;28;19921;-81
2023/01/05 06:26:26;;;;;;;;;;;;;;;8.65;100.00;101621.13;5039144;28;19936;-80
2023/01/05 06:28:51;;;;;;;;;;;;;;;8.67;100.00;101632.38;5054658;28;19920;-80
2023/01/05 06:31:16;;;;;;;;;;;;;;;8.67;100.00;101637.63;5055025;28;19974;-80
2023/01/05 06:33:42;;;;;;;;;;;;;;;8.68;100.00;101643.72;5039787;28;20016;-80
2023/01/05 06:36:07;;;;;;;;;;;;;;;8.68;100.00;101657.72;5055769;28;19932;-80
2023/01/05 06:38:32;;;;;;;;;;;;;;;8.62;100.00;101659.03;5038779;28;20276;-80
2023/01/05 06:40:58;;;;;;;;;;;;;;;8.62;100.00;101672.19;5055354;28;19928;-80
2023/01/05 06:43:24;;;;;;;;;;;;;;;8.58;100.00;101673.38;5055261;28;19924;-80
2023/01/05 06:45:49;;;;;;;;;;;;;;;8.54;100.00;101685.09;5055568;28;19928;-80
2023/01/05 06:48:14;;;;;;;;;;;;;;;8.50;100.00;101699.44;5055124;28;19928;-80
2023/01/05 06:50:39;;;;;;;;;;;;;;;8.52;100.00;101710.66;5038884;28;19963;-80
2023/01/05 06:53:05;;;;;;;;;;;;;;;8.55;100.00;101714.84;5038295;28;19925;-80
2023/01/05 06:55:30;;;;;;;;;;;;;;;8.57;100.00;101719.03;5055500;28;19974;-81
2023/01/05 06:57:55;;;;;;;;;;;;;;;8.53;100.00;101732.56;5054188;28;19925;-80
2023/01/05 07:00:21;;;;;;;;;;;;;;;8.56;100.00;101735.81;5035902;28;19935;-80
2023/01/05 07:02:46;;;;;;;;;;;;;;;8.55;100.00;101747.25;5055367;28;20010;-80
2023/01/05 07:05:11;;;;;;;;;;;;;;;8.54;100.00;101756.13;5055487;28;19923;-80
2023/01/05 07:07:37;;;;;;;;;;;;;;;8.53;100.00;101764.13;5054143;28;19947;-80
2023/01/05 07:10:02;;;;;;;;;;;;;;;8.54;100.00;101761.38;5056311;28;19928;-80
2023/01/05 07:12:28;;;;;;;;;;;;;;;8.55;100.00;101772.75;5054670;28;20078;-80
2023/01/05 07:14:53;;;;;;;;;;;;;;;8.58;100.00;101781.25;5053194;28;19975;-80
2023/01/05 07:17:18;;;;;;;;;;;;;;;8.56;100.00;101785.78;5054156;28;19985;-80
2023/01/05 07:19:44;;;;;;;;;;;;;;;8.56;100.00;101801.59;5054206;28;19920;-80
2023/01/05 07:22:09;;;;;;;;;;;;;;;8.51;100.00;101793.16;5054978;28;19920;-80
2023/01/05 07:24:34;;;;;;;;;;;;;;;8.50;100.00;101798.56;5053889;28;19920;-80
2023/01/05 07:27:00;;;;;;;;;;;;;;;8.46;100.00;101808.47;5055016;28;19928;-80
2023/01/05 07:29:25;;;;;;;;;;;;;;;8.49;100.00;101810.84;5051946;28;20351;-80
2023/01/05 07:31:51;;;;;;;;;;;;;;;8.47;100.00;101822.44;5054654;28;19939;-80
2023/01/05 07:34:20;;;;;;;;;;;;;;;8.38;100.00;101818.66;5054041;28;19924;-80
2023/01/05 07:36:45;;;;;;;;;;;;;;;8.38;100.00;101831.81;5054829;28;19916;-80
2023/01/05 07:39:10;;;;;;;;;;;;;;;8.36;100.00;101829.31;5055741;28;19921;-80
2023/01/05 07:41:35;;;;;;;;;;;;;;;8.35;100.00;101826.78;5055142;28;20014;-80
2023/01/05 07:44:01;;;;;;;;;;;;;;;8.27;100.00;101829.97;5037390;28;19928;-80
2023/01/05 07:46:26;;;;;;;;;;;;;;;8.25;100.00;101821.34;5053036;28;20489;-80
2023/01/05 07:48:51;;;;;;;;;;;;;;;8.27;100.00;101822.06;5055379;28;20010;-80
2023/01/05 07:51:17;;;;;;;;;;;;;;;8.19;100.00;101822.66;5036672;28;19925;-80
2023/01/05 07:53:42;;;;;;;;;;;;;;;8.18;100.00;101828.84;5053820;28;19931;-80
2023/01/05 07:56:08;;;;;;;;;;;;;;;8.19;100.00;101840.22;5055629;28;19986;-80
2023/01/05 07:58:33;;;;;;;;;;;;;;;8.18;100.00;101844.63;5042960;28;19929;-80
2023/01/05 08:01:09;;;;;;;;;;;;;;;8.20;100.00;101844.53;5053602;28;19924;-79
2023/01/05 08:03:34;;;;;;;;;;;;;;;8.19;100.00;101861.25;5054981;28;20038;-80
2023/01/05 08:06:03;;;;;;;;;;;;;;;8.16;100.00;101861.47;5054560;28;19925;-79
2023/01/05 08:08:29;;;;;;;;;;;;;;;8.21;100.00;101867.25;5052498;28;19971;-80
2023/01/05 08:10:54;;;;;;;;;;;;;;;8.23;100.00;101883.72;5054054;28;20301;-80
2023/01/05 08:16:03;;;;;;;;;;;;;;;8.27;100.00;101895.72;5052842;28;19927;-79
2023/01/05 08:18:29;;;;;;;;;;;;;;;8.26;100.00;101901.09;5053057;28;19925;-79
2023/01/05 08:20:55;;;;;;;;;;;;;;;8.26;100.00;101912.47;5054334;28;19928;-79
2023/01/05 08:23:21;;;;;;;;;;;;;;;8.27;100.00;101929.06;5053280;28;19927;-80
2023/01/05 08:25:46;;;;;;;;;;;;;;;8.23;100.00;101939.81;5054499;28;19933;-80
2023/01/05 08:28:12;;;;;;;;;;;;;;;8.23;100.00;101945.09;5051842;28;20004;-79
2023/01/05 08:30:37;;;;;;;;;;;;;;;8.18;100.00;101947.19;5053174;28;19966;-79
2023/01/05 08:33:02;;;;;;;;;;;;;;;8.18;100.00;101959.50;5051530;28;20011;-79
2023/01/05 08:35:28;;;;;;;;;;;;;;;8.14;100.00;101960.66;5037181;28;19924;-80
2023/01/05 08:37:53;;;;;;;;;;;;;;;8.07;100.00;101956.78;5052571;28;20594;-79
2023/01/05 08:40:18;;;;;;;;;;;;;;;8.07;100.00;101965.50;5054195;28;19964;-79
2023/01/05 08:42:47;;;;;;;;;;;;;;;8.03;100.00;101966.66;5053610;28;19928;-80
2023/01/05 08:45:12;;;;;;;;;;;;;;;8.04;100.00;101968.34;5053400;28;19925;-80
2023/01/05 08:47:37;;;;;;;;;;;;;;;8.10;100.00;101978.44;5053175;28;20025;-79
2023/01/05 08:50:03;;;;;;;;;;;;;;;8.26;100.00;101985.28;5051831;28;20553;-79
2023/01/05 08:52:28;;;;;;;;;;;;;;;8.28;100.00;101991.28;5053788;28;19916;-80
2023/01/05 08:54:53;;;;;;;;;;;;;;;8.05;100.00;101948.97;5053169;28;19998;-80
2023/01/05 08:57:18;;;;;;;;;;;;;;;8.26;100.00;101987.91;5036835;28;19966;-79
2023/01/05 08:59:44;;;;;;;;;;;;;;;8.17;100.00;101978.88;5053183;28;19928;-80
2023/01/05 09:02:10;;;;;;;;;;;;;;;8.22;100.00;101974.94;5053741;28;19920;-79
2023/01/05 09:04:35;;;;;;;;;;;;;;;8.18;100.00;101986.63;5053900;28;19917;-80
2023/01/05 09:07:00;;;;;;;;;;;;;;;8.20;100.00;101983.91;5052849;28;19971;-80
2023/01/05 09:09:26;;;;;;;;;;;;;;;8.27;100.00;101973.78;5054756;28;19912;-79
2023/01/05 09:11:51;;;;;;;;;;;;;;;8.40;100.00;101975.47;5052801;28;19927;-79
2023/01/05 09:14:17;;;;;;;;;;;;;;;8.97;100.00;101986.38;5052640;28;19990;-79
2023/01/05 09:16:43;;;;;;;;;;;;;;;9.15;100.00;101984.19;5052196;28;19924;-80
2023/01/05 09:19:08;;;;;;;;;;;;;;;9.47;100.00;101956.31;5052833;28;20011;-79
2023/01/05 09:21:33;;;;;;;;;;;;;;;10.35;100.00;101951.38;5054980;28;19935;-80
2023/01/05 09:23:59;;;;;;;;;;;;;;;10.61;100.00;101909.69;5053109;28;19935;-80
2023/01/05 09:26:24;;;;;;;;;;;;;;;10.43;100.00;101859.22;5053300;28;20443;-80
2023/01/05 09:28:49;;;;;;;;;;;;;;;10.40;100.00;101835.72;5052223;28;19924;-80
2023/01/05 09:31:16;;;;;;;;;;;;;;;10.17;100.00;101817.28;5036495;28;19934;-80
2023/01/05 09:33:41;;;;;;;;;;;;;;;9.94;100.00;101799.84;5053430;28;19923;-79
2023/01/05 09:36:07;;;;;;;;;;;;;;;10.84;100.00;101818.03;5053695;28;20399;-80
2023/01/05 09:38:33;;;;;;;;;;;;;;;12.18;100.00;101817.16;5053104;28;19971;-80
2023/01/05 09:41:10;;;;;;;;;;;;;;;13.45;100.00;101794.84;5051591;28;19962;-80
2023/01/05 09:43:37;;;;;;;;;;;;;;;15.50;100.00;101763.97;5050860;28;20007;-81
2023/01/05 09:46:09;;;;;;;;;;;;;;;16.89;100.00;101753.53;5056939;28;19925;-80
2023/01/05 09:48:39;;;;;;;;;;;;;;;17.38;100.00;101734.72;5052549;28;20384;-80
2023/01/05 09:51:04;;;;;;;;;;;;;;;18.37;100.00;101737.66;5052844;28;19924;-80
2023/01/05 09:53:29;;;;;;;;;;;;;;;19.39;100.00;101729.09;5048507;28;19931;-80
2023/01/05 09:55:56;;;;;;;;;;;;;;;19.97;100.00;101739.03;5052343;28;19916;-81
2023/01/05 09:58:23;;;;;;;;;;;;;;;18.79;98.27;101738.97;5052985;28;20871;-78
2023/01/05 10:01:13;;;;;;;;;;;;;;;17.63;100.00;101731.94;5035524;28;19921;-79
2023/01/05 10:04:02;;;;;;;;;;;;;;;16.37;100.00;101751.22;5044088;28;19982;-78
2023/01/05 10:06:36;;;;;;;;;;;;;;;15.97;100.00;101758.97;5064351;28;19959;-79
2023/01/05 10:09:03;;;;;;;;;;;;;;;15.72;100.00;101752.78;5053224;28;19923;-79
2023/01/05 10:14:37;;;;;;;;;;;;;;;17.60;100.00;101759.81;5051854;28;20007;-79
2023/01/05 10:17:06;;;;;;;;;;;;;;;18.96;100.00;101754.84;5051093;28;19917;-79
2023/01/05 10:19:32;;;;;;;;;;;;;;;19.52;100.00;101755.19;5059187;28;20383;-80
2023/01/05 10:22:13;;;;;;;;;;;;;;;18.92;98.15;101757.03;5052956;28;19925;-79
2023/01/05 10:24:58;;;;;;;;;;;;;;;18.66;99.25;101749.41;5059775;28;19920;-80
2023/01/05 10:27:38;;;;;;;;;;;;;;;18.43;100.00;101762.84;5019331;28;20491;-80
2023/01/05 10:30:15;;;;;;;;;;;;;;;18.76;100.00;101767.88;5052430;28;20480;-80
2023/01/05 10:33:00;;;;;;;;;;;;;;;19.39;100.00;101766.56;5050612;28;20447;-80
2023/01/05 10:35:37;;;;;;;;;;;;;;;18.73;95.56;101770.91;5053689;28;20320;-80
2023/01/05 10:38:05;;;;;;;;;;;;;;;17.95;97.50;101763.00;5051574;28;19986;-80
2023/01/05 10:40:36;;;;;;;;;;;;;;;18.28;100.00;101760.09;5052171;28;19916;-80
2023/01/05 10:43:13;;;;;;;;;;;;;;;19.99;96.35;101763.78;5051836;28;20433;-80
2023/01/05 10:45:39;;;;;;;;;;;;;;;20.93;88.40;101777.03;5052690;28;19964;-80
2023/01/05 10:48:10;;;;;;;;;;;;;;;20.53;86.66;101780.22;5051150;28;19921;-79
2023/01/05 10:50:36;;;;;;;;;;;;;;;20.77;88.67;101780.81;5051401;28;19928;-80
2023/01/05 10:53:06;;;;;;;;;;;;;;;20.83;86.89;101777.38;5052495;28;19917;-80
2023/01/05 10:55:37;;;;;;;;;;;;;;;20.89;83.23;101781.13;5059851;28;19932;-80
2023/01/05 10:58:02;;;;;;;;;;;;;;;21.20;81.38;101783.38;5055430;28;19943;-80
2023/01/05 11:00:41;;;;;;;;;;;;;;;21.64;80.37;101798.28;5054762;28;19920;-80
2023/01/05 11:03:11;;;;;;;;;;;;;;;21.45;75.38;101796.34;5053648;28;20287;-80
2023/01/05 11:05:40;;;;;;;;;;;;;;;20.29;78.12;101783.28;5055173;28;19932;-80
2023/01/05 11:08:25;;;;;;;;;;;;;;;19.10;85.71;101789.66;5058889;28;20034;-80
2023/01/05 11:10:51;;;;;;;;;;;;;;;18.06;93.61;101781.28;5056089;28;19920;-80
2023/01/05 11:13:28;;;;;;;;;;;;;;;17.01;100.00;101786.03;5056013;28;19928;-80
2023/01/05 11:16:20;;;;;;;;;;;;;;;16.35;100.00;101796.69;5055212;28;19939;-80
2023/01/05 11:18:46;;;;;;;;;;;;;;;15.77;100.00;101793.03;5054765;28;19921;-80
2023/01/05 11:21:16;;;;;;;;;;;;;;;15.16;100.00;101791.41;5056956;28;19916;-79
2023/01/05 11:23:45;;;;;;;;;;;;;;;14.94;100.00;101780.28;5055357;28;19912;-82
2023/01/05 11:26:17;;;;;;;;;;;;;;;14.90;100.00;101780.75;5054298;28;20679;-79
2023/01/05 11:28:54;;;;;;;;;;;;;;;14.50;100.00;101792.69;5054046;28;20308;-80
2023/01/05 11:31:19;;;;;;;;;;;;;;;14.17;100.00;101790.53;5055394;28;19920;-81
2023/01/05 11:33:45;;;;;;;;;;;;;;;13.81;100.00;101792.34;5057319;28;19920;-80
2023/01/05 11:36:13;;;;;;;;;;;;;;;13.34;100.00;101787.91;5057437;28;19928;-80
2023/01/05 11:38:38;;;;;;;;;;;;;;;13.12;100.00;101801.50;5055041;28;19940;-81
2023/01/05 11:41:08;;;;;;;;;;;;;;;12.88;100.00;101805.44;5055629;28;20600;-80
2023/01/05 11:43:34;;;;;;;;;;;;;;;12.74;100.00;101805.88;5054247;28;19960;-81
2023/01/05 11:46:02;;;;;;;;;;;;;;;12.59;100.00;101808.13;5052906;28;19962;-80
2023/01/05 11:48:30;;;;;;;;;;;;;;;12.40;100.00;101810.75;5046958;28;19921;-80
2023/01/05 11:50:57;;;;;;;;;;;;;;;12.23;100.00;101815.75;5062921;28;19931;-81
2023/01/05 11:53:34;;;;;;;;;;;;;;;12.08;100.00;101814.47;5054482;28;20372;-81
2023/01/05 11:56:01;;;;;;;;;;;;;;;11.99;100.00;101817.94;5053046;28;19913;-80
2023/01/05 11:58:31;;;;;;;;;;;;;;;12.00;100.00;101824.88;5054122;28;19925;-80
2023/01/05 12:01:02;;;;;;;;;;;;;;;11.87;100.00;101825.13;5053426;28;19917;-80
2023/01/05 12:03:27;;;;;;;;;;;;;;;11.73;100.00;101824.50;5054509;28;19926;-80
2023/01/05 12:05:55;;;;;;;;;;;;;;;11.68;100.00;101836.47;5055047;28;20568;-81
2023/01/05 12:08:28;;;;;;;;;;;;;;;11.58;100.00;101831.09;5055568;28;19912;-79
2023/01/05 12:10:54;;;;;;;;;;;;;;;11.58;100.00;101827.63;5055517;28;19927;-79
2023/01/05 12:13:28;;;;;;;;;;;;;;;11.49;100.00;101832.75;5054631;28;19917;-83
2023/01/05 12:15:59;;;;;;;;;;;;;;;11.43;100.00;101838.56;5053308;28;20016;-81
2023/01/05 12:18:43;;;;;;;;;;;;;;;11.31;100.00;101836.97;5055179;28;19927;-81
2023/01/05 12:21:16;;;;;;;;;;;;;;;11.31;100.00;101839.63;5055002;28;19917;-81
2023/01/05 12:24:00;;;;;;;;;;;;;;;11.25;100.00;101837.50;5054545;28;19960;-79
2023/01/05 12:26:27;;;;;;;;;;;;;;;11.07;100.00;101834.59;5059293;28;20363;-79
2023/01/05 12:29:10;;;;;;;;;;;;;;;11.07;100.00;101839.88;5054101;28;19982;-80
2023/01/05 12:31:47;;;;;;;;;;;;;;;11.01;100.00;101838.56;5059375;28;20275;-80
2023/01/05 12:34:21;;;;;;;;;;;;;;;10.91;100.00;101845.63;5053718;28;19952;-80
2023/01/05 12:36:47;;;;;;;;;;;;;;;10.86;100.00;101840.69;5060560;28;19920;-78
2023/01/05 12:39:27;;;;;;;;;;;;;;;10.86;100.00;101850.44;5053871;28;19917;-78
2023/01/05 12:42:06;;;;;;;;;;;;;;;10.97;100.00;101852.19;5050222;28;19927;-78
2023/01/05 12:44:47;;;;;;;;;;;;;;;11.01;100.00;101854.44;5059876;28;19928;-79
2023/01/05 12:47:27;;;;;;;;;;;;;;;11.02;100.00;101848.19;5051402;28;20418;-78
2023/01/05 12:50:16;;;;;;;;;;;;;;;11.19;100.00;101856.50;5059227;28;20621;-79
2023/01/05 12:52:45;;;;;;;;;;;;;;;11.23;100.00;101863.19;5044950;28;19923;-79
2023/01/05 12:55:21;;;;;;;;;;;;;;;11.21;100.00;101871.25;5052540;28;19946;-79
2023/01/05 12:57:53;;;;;;;;;;;;;;;11.24;100.00;101867.53;5051688;28;20016;-79
2023/01/05 13:00:18;;;;;;;;;;;;;;;11.19;100.00;101869.72;5054157;28;19952;-78
2023/01/05 13:02:52;;;;;;;;;;;;;;;11.23;100.00;101879.06;5052584;28;19967;-78
2023/01/05 13:05:40;;;;;;;;;;;;;;;11.18;100.00;101875.97;5052439;28;20378;-78
2023/01/05 13:08:14;;;;;;;;;;;;;;;11.17;100.00;101879.56;5018431;28;19921;-78
2023/01/05 13:10:46;;;;;;;;;;;;;;;11.18;100.00;101881.25;5052130;28;19912;-78
2023/01/05 13:13:16;;;;;;;;;;;;;;;11.07;100.00;101876.88;5052278;28;19974;-78
2023/01/05 13:15:44;;;;;;;;;;;;;;;10.98;100.00;101886.41;5052612;28;20394;-78